New Richmond, OH (45157)

11:06 PM EDT on September 19, 2014 (GMT -0400)
Summer Hill | Change Station
CLOSE
Current Station
Personal Weather Station
Location: California, KY
Elevation: 833 ft
Nearby Weather Stations

Elev 833 ft 38.93 °N, 84.29 °W | Updated 6 minutes ago

Clear
Clear
64.2 °F
Feels Like 64.2 °F
N
0.0
Wind Variable Wind from NW
Gusts 0.7 mph

Today
High -- | Low -- °F
--% Chance of Precip.
Yesterday
High -- | Low -- °F
Precip. -- in
7:21 AM 7:38 PM
Waning Crescent, 15% visible
Pressure 30.10 in
Visibility 10.0 miles
Clouds Clear
Dew Point 56 °F
Humidity 76%
Rainfall 0.00 in
Snow Depth Not available.
UV 0 out of 12
Pollen 4.40 out of 12
Ozone Good
PM2.5 Moderate
Flu Activity Not available.
METAR KI69 200254Z AUTO 00000KT 10SM CLR 15/13 A3010 RMK AO1

More Conditions Fewer Conditions

Pressure 30.10 in
Visibility 10.0 miles
Clouds Clear
Dew Point 56 °F
Humidity 76%
Rainfall 0.00 in
Snow Depth Not available.
UV 0 out of 12
Pollen 4.40 out of 12
Ozone Good
PM2.5 Moderate
Flu Activity Not available.
METAR KI69 200254Z AUTO 00000KT 10SM CLR 15/13 A3010 RMK AO1

More Conditions Fewer Conditions

10-Day Weather Forecast

Almanac

Astronomy

Sep. 19, 2014 Rise Set
Actual Time 7:21 AM EDT 7:38 PM EDT
Civil Twilight 6:55 AM EDT 8:05 PM EDT
Nautical Twilight 6:23 AM EDT 8:36 PM EDT
Astronomical Twilight 5:51 AM EDT 9:08 PM EDT
Moon 3:08 AM EDT (9/19) 5:05 PM EDT (9/19)
Length of Visible Light 13h 10m
Length of Day
12h 16m
Tomorrow will be 2m 31s shorter.
Waning Crescent, 15% of the Moon is Illuminated
Today
Waning Crescent
Sep 24
New
Oct 1
First Quarter
Oct 8
Full
Oct 15
Last Quarter

Today's Extremes

State Highs State Lows

Community

WunderPhotos

Upload Photos

1,754,768 photos uploaded!

WunderBlogs® & News

Nearby

Air Quality

  Air Quality AQ Index Pollutant
Yesterday Good
PM10
Yesterday Good
OZONE
Current Moderate
PM2.5
Current Good
OZONE
Friday Moderate
PM2.5
Friday Good
OZONE
Saturday Moderate
PM2.5
Saturday Good
OZONE
Sunday Good
PM2.5
Sunday Good
OZONE
Monday Good
PM2.5
Monday Good
OZONE

Snow Depth

Station Depth Elevation
No new snow has been reported.

Earthquake Activity

City Distance Mag. Time & Date
No recent earthquake activity has been reported nearby.
Minimum magnitude displayed is 2.5.

Coastal Water Temperatures

Place Temperature
No Stations Reporting

Nearby Weather Stations